Time;durP1;ratioP1;P1;durP2;ratioP2;P2;SDS_P1;SDS_P2;PMS_P1;PMS_P2;Temp;Humidity;BMP_temperature;BMP_pressure;BME280_temperature;BME280_humidity;BME280_pressure;Samples;Min_cycle;Max_cycle;Signal;HPM_P1;HPM_P2
2021/04/05 00:01:04;;;;;;;3.28;1.00;;;1.70;99.90;;;;;;5037885;28;20304;-68
2021/04/05 00:03:30;;;;;;;0.95;0.95;;;1.70;99.90;;;;;;5043603;28;20356;-73
2021/04/05 00:05:56;;;;;;;1.15;1.00;;;1.70;99.90;;;;;;5042976;28;20233;-72
2021/04/05 00:08:22;;;;;;;0.85;0.85;;;1.60;99.90;;;;;;5041437;28;20284;-70
2021/04/05 00:10:52;;;;;;;1.63;0.90;;;1.60;99.90;;;;;;5043135;28;20209;-70
2021/04/05 00:13:22;;;;;;;1.52;1.02;;;1.70;99.90;;;;;;5040450;28;20194;-71
2021/04/05 00:15:48;;;;;;;1.38;1.00;;;1.80;99.90;;;;;;5044004;28;20205;-71
2021/04/05 00:18:17;;;;;;;1.10;1.00;;;1.80;99.90;;;;;;5042439;28;20830;-70
2021/04/05 00:21:07;;;;;;;1.60;1.20;;;1.80;99.90;;;;;;5043734;28;20209;-72
2021/04/05 00:23:34;;;;;;;1.88;1.13;;;1.90;99.90;;;;;;5013297;28;20580;-71
2021/04/05 00:26:00;;;;;;;2.85;1.10;;;1.90;99.90;;;;;;5043755;28;20197;-70
2021/04/05 00:28:26;;;;;;;2.05;1.00;;;2.00;99.90;;;;;;5045674;28;20269;-71
2021/04/05 00:30:53;;;;;;;1.40;0.90;;;2.00;99.90;;;;;;5043254;28;20292;-71
2021/04/05 00:33:20;;;;;;;3.72;1.00;;;2.00;99.90;;;;;;5043811;28;20201;-72
2021/04/05 00:35:46;;;;;;;1.15;0.90;;;2.00;99.90;;;;;;5042911;28;20279;-74
2021/04/05 00:38:13;;;;;;;2.58;1.15;;;2.00;99.90;;;;;;5042590;28;20194;-72
2021/04/05 00:40:49;;;;;;;0.90;0.90;;;1.90;99.90;;;;;;5043241;28;20198;-72
2021/04/05 00:43:17;;;;;;;1.35;0.88;;;1.90;99.90;;;;;;5041083;28;20233;-71
2021/04/05 00:45:43;;;;;;;1.67;0.98;;;1.80;99.90;;;;;;5039641;28;20204;-70
2021/04/05 00:48:11;;;;;;;1.27;0.90;;;1.80;99.90;;;;;;5041808;28;20204;-72
2021/04/05 00:50:39;;;;;;;3.67;1.35;;;1.80;99.90;;;;;;5042229;28;20185;-72
2021/04/05 00:53:08;;;;;;;0.93;0.88;;;1.80;99.90;;;;;;5038323;28;20259;-70
2021/04/05 00:55:34;;;;;;;0.80;0.80;;;1.80;99.90;;;;;;5041504;28;20277;-71
2021/04/05 00:58:00;;;;;;;0.80;0.80;;;1.70;99.90;;;;;;5044097;28;20276;-71
2021/04/05 01:00:43;;;;;;;0.93;0.93;;;1.70;99.90;;;;;;5045062;28;20220;-72
2021/04/05 01:05:49;;;;;;;0.80;0.80;;;1.30;99.90;;;;;;5053541;28;20259;-72
2021/04/05 01:08:19;;;;;;;0.75;0.75;;;1.20;99.90;;;;;;5050040;28;20282;-71
2021/04/05 01:10:46;;;;;;;0.73;0.73;;;1.00;99.90;;;;;;5061122;28;20212;-74
2021/04/05 01:13:13;;;;;;;0.65;0.65;;;0.90;99.90;;;;;;5067607;28;20291;-73
2021/04/05 01:15:39;;;;;;;1.38;0.80;;;0.80;99.90;;;;;;5060047;28;20193;-72
2021/04/05 01:18:06;;;;;;;0.80;0.80;;;0.70;99.90;;;;;;5061564;28;20201;-73
2021/04/05 01:20:32;;;;;;;1.48;0.60;;;0.70;99.90;;;;;;5061104;28;20684;-73
2021/04/05 01:22:59;;;;;;;1.23;0.80;;;0.60;99.90;;;;;;5066710;28;20287;-74
2021/04/05 01:25:26;;;;;;;1.00;0.90;;;0.50;99.90;;;;;;5047648;28;20690;-73
2021/04/05 01:27:53;;;;;;;0.90;0.90;;;0.50;99.90;;;;;;5064603;28;20245;-74
2021/04/05 01:30:34;;;;;;;4.70;0.80;;;0.40;99.90;;;;;;5063823;28;20252;-73
2021/04/05 01:33:10;;;;;;;0.80;0.80;;;0.40;99.90;;;;;;5064407;28;20227;-74
2021/04/05 01:35:43;;;;;;;0.90;0.90;;;0.30;99.90;;;;;;5056903;28;20295;-74
2021/04/05 01:38:11;;;;;;;0.70;0.70;;;0.30;99.90;;;;;;5062409;28;20291;-74
2021/04/05 01:40:38;;;;;;;0.80;0.73;;;0.20;99.90;;;;;;5058426;28;20745;-74
2021/04/05 01:43:05;;;;;;;0.70;0.70;;;0.30;99.90;;;;;;5062538;28;20341;-73
2021/04/05 01:45:31;;;;;;;0.80;0.80;;;0.20;99.90;;;;;;5065356;28;20208;-73
2021/04/05 01:47:58;;;;;;;1.02;0.95;;;0.20;99.90;;;;;;5050075;28;20204;-73
2021/04/05 01:50:24;;;;;;;1.85;0.98;;;0.10;99.90;;;;;;5062575;28;20203;-73
2021/04/05 01:52:50;;;;;;;1.75;0.90;;;0.00;99.90;;;;;;5062031;28;20677;-73
2021/04/05 01:55:16;;;;;;;1.88;0.95;;;-0.10;99.90;;;;;;5057490;28;20198;-74
2021/04/05 01:57:43;;;;;;;1.45;0.90;;;-0.10;99.90;;;;;;5063272;28;20657;-73
2021/04/05 02:00:21;;;;;;;3.35;1.00;;;-0.20;99.90;;;;;;5065254;28;20205;-74
2021/04/05 02:02:47;;;;;;;1.42;0.85;;;-0.40;99.90;;;;;;5060083;28;20204;-74
2021/04/05 02:05:15;;;;;;;1.08;0.98;;;-0.50;99.90;;;;;;5065449;28;20770;-73
2021/04/05 02:07:41;;;;;;;2.00;0.95;;;-0.50;99.90;;;;;;5042863;28;20192;-74
2021/04/05 02:10:17;;;;;;;2.40;1.10;;;-0.60;99.90;;;;;;5067709;28;20189;-74
2021/04/05 02:12:45;;;;;;;1.98;1.05;;;-0.60;99.90;;;;;;5068630;28;20211;-74
2021/04/05 02:15:12;;;;;;;2.38;1.05;;;-0.60;99.90;;;;;;5066473;28;20188;-73
2021/04/05 02:17:38;;;;;;;1.15;1.05;;;-0.60;99.90;;;;;;5043867;28;20212;-73
2021/04/05 02:20:09;;;;;;;0.93;0.80;;;-0.60;99.90;;;;;;5058697;28;20302;-75
2021/04/05 02:22:43;;;;;;;1.45;1.00;;;-0.60;99.90;;;;;;5050173;28;20197;-74
2021/04/05 02:25:20;;;;;;;1.45;1.20;;;-0.60;99.90;;;;;;5046966;28;20216;-73
2021/04/05 02:27:48;;;;;;;2.20;1.00;;;-0.60;99.90;;;;;;5063327;28;20196;-73
2021/04/05 02:30:22;;;;;;;3.80;1.00;;;-0.60;99.90;;;;;;5044237;28;20200;-73
2021/04/05 02:32:59;;;;;;;0.95;0.90;;;-0.60;99.90;;;;;;5072411;28;20199;-74
2021/04/05 02:35:28;;;;;;;1.20;1.10;;;-0.70;99.90;;;;;;5048627;28;20200;-74
2021/04/05 02:37:55;;;;;;;4.18;1.00;;;-0.70;99.90;;;;;;5055987;28;20296;-72
2021/04/05 02:40:21;;;;;;;2.20;1.10;;;-0.70;99.90;;;;;;5068606;28;20192;-75
2021/04/05 02:42:47;;;;;;;1.10;1.00;;;-0.60;99.90;;;;;;5059931;28;20251;-74
2021/04/05 02:45:17;;;;;;;1.90;1.10;;;-0.60;99.90;;;;;;5068237;28;20287;-74
2021/04/05 02:47:43;;;;;;;0.90;0.80;;;-0.60;99.90;;;;;;5064658;28;20234;-74
2021/04/05 02:50:10;;;;;;;3.33;1.10;;;-0.60;99.90;;;;;;5063834;28;20250;-74
2021/04/05 02:52:36;;;;;;;1.15;1.05;;;-0.60;99.90;;;;;;5046938;28;20284;-74
2021/04/05 02:55:10;;;;;;;0.80;0.80;;;-0.60;99.90;;;;;;5062162;28;20200;-74
2021/04/05 02:57:38;;;;;;;3.00;1.05;;;-0.60;99.90;;;;;;5064037;28;20977;-74
2021/04/05 03:00:15;;;;;;;1.73;0.95;;;-0.60;99.90;;;;;;5072320;28;20282;-74
2021/04/05 03:02:43;;;;;;;2.30;0.95;;;-0.60;99.90;;;;;;5060569;28;20215;-73
2021/04/05 03:05:10;;;;;;;1.75;0.90;;;-0.50;99.90;;;;;;5063307;28;20595;-74
2021/04/05 03:07:37;;;;;;;0.98;0.95;;;-0.50;99.90;;;;;;5058508;28;20923;-74
2021/04/05 03:10:08;;;;;;;1.92;1.00;;;-0.50;99.90;;;;;;5066926;28;20689;-74
2021/04/05 03:12:39;;;;;;;1.33;0.90;;;-0.50;99.90;;;;;;5063834;28;20277;-74
2021/04/05 03:15:08;;;;;;;1.95;0.95;;;-0.50;99.90;;;;;;5068643;28;20261;-75
2021/04/05 03:17:35;;;;;;;1.80;1.00;;;-0.60;99.90;;;;;;5057955;28;20201;-74
2021/04/05 03:20:08;;;;;;;4.70;0.98;;;-0.60;99.90;;;;;;5070270;28;20200;-74
2021/04/05 03:22:34;;;;;;;2.60;1.10;;;-0.70;99.90;;;;;;5064579;28;20205;-74
2021/04/05 03:25:01;;;;;;;4.05;0.95;;;-0.80;99.90;;;;;;5047930;28;20192;-74
2021/04/05 03:27:27;;;;;;;5.13;1.20;;;-0.80;99.90;;;;;;5061463;28;20193;-74
2021/04/05 03:29:54;;;;;;;4.20;0.95;;;-0.70;99.90;;;;;;5064088;28;20566;-73
2021/04/05 03:32:21;;;;;;;0.98;0.90;;;-0.70;99.90;;;;;;5046998;28;20319;-74
2021/04/05 03:34:57;;;;;;;4.97;1.15;;;-0.80;99.90;;;;;;5066070;28;20204;-73
2021/04/05 03:37:25;;;;;;;3.53;1.10;;;-0.80;99.90;;;;;;5062592;28;20204;-72
2021/04/05 03:39:51;;;;;;;2.35;1.20;;;-0.90;99.90;;;;;;5059569;28;20200;-72
2021/04/05 03:42:30;;;;;;;5.85;1.10;;;-0.90;99.90;;;;;;5060911;28;20246;-73
2021/04/05 03:45:26;;;;;;;3.17;1.15;;;-1.00;99.90;;;;;;5058766;28;20208;-73
2021/04/05 03:48:14;;;;;;;2.85;1.13;;;-1.00;99.90;;;;;;5054449;28;20243;-72
2021/04/05 03:51:02;;;;;;;4.78;1.23;;;-1.00;99.90;;;;;;5065737;28;20736;-73
2021/04/05 03:54:00;;;;;;;2.10;1.08;;;-1.00;99.90;;;;;;5067058;28;20263;-73
2021/04/05 03:56:36;;;;;;;5.05;1.00;;;-0.90;99.90;;;;;;5002653;28;20216;-72
2021/04/05 03:59:05;;;;;;;2.45;1.20;;;-0.90;99.90;;;;;;5064963;28;20287;-74
2021/04/05 04:01:32;;;;;;;4.38;1.10;;;-0.90;99.90;;;;;;5070812;28;20964;-72
2021/04/05 04:04:08;;;;;;;4.82;1.10;;;-0.90;99.90;;;;;;5068904;28;20691;-72
2021/04/05 04:06:42;;;;;;;1.17;1.00;;;-0.90;99.90;;;;;;5053458;28;20657;-74
2021/04/05 04:09:09;;;;;;;3.42;0.90;;;-0.90;99.90;;;;;;5069403;28;20291;-74
2021/04/05 04:11:37;;;;;;;1.55;1.00;;;-0.90;99.90;;;;;;5052675;28;20197;-74
2021/04/05 04:14:05;;;;;;;4.20;1.00;;;-0.90;99.90;;;;;;5056878;28;20245;-74
2021/04/05 04:16:33;;;;;;;1.30;0.90;;;-0.90;99.90;;;;;;5071278;28;20196;-73
2021/04/05 04:19:02;;;;;;;3.28;1.23;;;-0.80;99.90;;;;;;5063029;28;20407;-71
2021/04/05 04:21:28;;;;;;;1.70;1.00;;;-0.90;99.90;;;;;;5067445;28;20231;-71
2021/04/05 04:23:56;;;;;;;1.50;1.00;;;-0.90;99.90;;;;;;5064152;28;21453;-73
2021/04/05 04:26:23;;;;;;;2.55;0.95;;;-0.90;99.90;;;;;;5063355;28;20955;-73
2021/04/05 04:28:49;;;;;;;1.20;1.10;;;-0.80;99.90;;;;;;5068857;28;20685;-73
2021/04/05 04:31:19;;;;;;;4.95;0.95;;;-0.80;99.90;;;;;;5069455;28;20212;-73
2021/04/05 04:33:49;;;;;;;1.38;1.13;;;-0.70;99.90;;;;;;5061123;28;20304;-74
2021/04/05 04:36:26;;;;;;;1.08;0.77;;;-0.70;99.90;;;;;;5056924;28;20192;-72
2021/04/05 04:38:53;;;;;;;5.20;0.95;;;-0.70;99.90;;;;;;5068596;28;20193;-73
2021/04/05 04:41:21;;;;;;;1.95;1.02;;;-0.70;99.90;;;;;;5072956;28;20196;-74
2021/04/05 04:43:46;;;;;;;1.48;0.90;;;-0.60;99.90;;;;;;5057423;28;20762;-72
2021/04/05 04:46:12;;;;;;;0.98;0.95;;;-0.70;99.90;;;;;;5050656;28;20249;-73
2021/04/05 04:48:38;;;;;;;1.10;1.00;;;-0.60;99.90;;;;;;5068339;28;20197;-73
2021/04/05 04:51:03;;;;;;;1.35;0.90;;;-0.70;99.90;;;;;;5056304;28;20258;-72
2021/04/05 04:53:29;;;;;;;1.92;0.93;;;-0.70;99.90;;;;;;5071395;28;20203;-73
2021/04/05 04:55:54;;;;;;;0.90;0.90;;;-0.80;99.90;;;;;;5070602;28;20219;-73
2021/04/05 04:58:20;;;;;;;4.32;1.00;;;-0.80;99.90;;;;;;5066801;28;20197;-73
2021/04/05 05:00:46;;;;;;;1.17;1.00;;;-0.80;99.90;;;;;;5075496;28;20200;-73
2021/04/05 05:03:12;;;;;;;1.30;1.00;;;-0.80;99.90;;;;;;5066982;28;20246;-72
2021/04/05 05:05:39;;;;;;;1.60;1.10;;;-0.70;99.90;;;;;;5071708;28;20294;-72
2021/04/05 05:08:05;;;;;;;1.05;0.90;;;-0.70;99.90;;;;;;5079001;28;20199;-73
2021/04/05 05:10:31;;;;;;;4.20;1.00;;;-0.60;99.90;;;;;;5067847;28;20274;-74
2021/04/05 05:12:57;;;;;;;2.63;1.15;;;-0.60;99.90;;;;;;5061466;28;20729;-73
2021/04/05 05:15:23;;;;;;;1.30;1.00;;;-0.60;99.90;;;;;;5063066;28;20204;-73
2021/04/05 05:17:50;;;;;;;1.23;0.93;;;-0.60;99.90;;;;;;5065384;28;20200;-73
2021/04/05 05:20:18;;;;;;;3.63;0.88;;;-0.50;99.90;;;;;;5063306;28;20624;-72
2021/04/05 05:22:50;;;;;;;1.30;1.10;;;-0.50;99.90;;;;;;5061840;28;20208;-73
2021/04/05 05:25:19;;;;;;;1.20;1.10;;;-0.50;99.90;;;;;;5065342;28;20188;-73
2021/04/05 05:27:50;;;;;;;1.05;1.00;;;-0.40;99.90;;;;;;5072485;28;20200;-73
2021/04/05 05:30:20;;;;;;;1.10;1.00;;;-0.40;99.90;;;;;;5066969;28;20680;-73
2021/04/05 05:32:52;;;;;;;1.30;0.98;;;-0.30;99.90;;;;;;5070026;28;20635;-74
2021/04/05 05:35:18;;;;;;;0.82;0.82;;;-0.30;99.90;;;;;;5065901;28;20200;-72
2021/04/05 05:37:45;;;;;;;0.70;0.70;;;-0.20;99.90;;;;;;5066529;28;20311;-73
2021/04/05 05:40:27;;;;;;;1.90;1.00;;;-0.20;99.90;;;;;;5068851;28;20635;-73
2021/04/05 05:43:23;;;;;;;1.35;1.00;;;-0.20;99.90;;;;;;5070427;28;20213;-73
2021/04/05 05:45:55;;;;;;;3.00;0.70;;;-0.20;99.90;;;;;;5067029;28;20192;-73
2021/04/05 05:48:23;;;;;;;0.95;0.85;;;-0.10;99.90;;;;;;5062310;28;20204;-73
2021/04/05 05:51:07;;;;;;;1.33;1.00;;;-0.10;99.90;;;;;;5066623;28;20192;-73
2021/04/05 05:53:33;;;;;;;2.67;1.20;;;0.00;99.90;;;;;;5061553;28;20192;-73
2021/04/05 05:56:18;;;;;;;1.15;1.05;;;0.10;99.90;;;;;;5070413;28;20238;-74
2021/04/05 05:59:29;;;;;;;1.05;0.98;;;0.10;99.90;;;;;;5063333;28;20208;-73
2021/04/05 06:02:21;;;;;;;1.10;1.00;;;0.10;99.90;;;;;;5052465;28;20278;-73
2021/04/05 06:05:17;;;;;;;1.05;1.00;;;0.10;99.90;;;;;;5019405;28;20675;-73
2021/04/05 06:08:14;;;;;;;1.58;1.00;;;0.20;99.90;;;;;;5068075;28;20655;-73
2021/04/05 06:11:05;;;;;;;0.88;0.88;;;0.20;99.90;;;;;;5060033;28;20284;-73
2021/04/05 06:13:34;;;;;;;2.13;1.90;;;0.20;99.90;;;;;;5055243;28;20216;-73
2021/04/05 06:16:14;;;;;;;1.30;1.20;;;0.30;99.90;;;;;;5069977;28;20201;-72
2021/04/05 06:18:58;;;;;;;1.00;0.90;;;0.30;99.90;;;;;;5063094;28;21171;-72
2021/04/05 06:21:33;;;;;;;1.10;0.90;;;0.30;99.90;;;;;;5065467;28;20189;-73
2021/04/05 06:24:21;;;;;;;1.10;1.00;;;0.30;99.90;;;;;;5062042;28;20235;-72
2021/04/05 06:26:54;;;;;;;1.30;1.20;;;0.30;99.90;;;;;;5031439;28;20205;-72
2021/04/05 06:29:33;;;;;;;1.10;1.00;;;0.30;99.90;;;;;;5063082;28;20189;-73
2021/04/05 06:32:05;;;;;;;0.93;0.90;;;0.40;99.90;;;;;;5064201;28;20192;-72
2021/04/05 06:34:34;;;;;;;0.88;0.80;;;0.40;99.90;;;;;;5054327;28;20217;-72
2021/04/05 06:37:30;;;;;;;1.90;0.90;;;0.40;99.90;;;;;;5063756;28;20196;-73
2021/04/05 06:40:04;;;;;;;4.10;2.30;;;0.50;99.90;;;;;;5058032;28;20209;-73
2021/04/05 06:43:08;;;;;;;0.80;0.80;;;0.80;99.90;;;;;;5065415;28;20200;-74
2021/04/05 06:46:06;;;;;;;1.20;1.10;;;0.70;99.90;;;;;;5062972;28;20239;-72
2021/04/05 06:48:44;;;;;;;3.10;1.17;;;0.80;99.90;;;;;;5045842;28;20347;-73
2021/04/05 06:51:54;;;;;;;1.80;1.13;;;1.00;99.90;;;;;;5059192;28;20207;-73
2021/04/05 06:54:49;;;;;;;1.20;1.10;;;1.00;99.90;;;;;;5019121;28;20211;-72
2021/04/05 06:57:26;;;;;;;3.53;1.20;;;0.80;99.90;;;;;;5012859;28;20290;-73
2021/04/05 06:59:52;;;;;;;1.05;0.98;;;0.90;99.90;;;;;;5055450;28;20211;-72
2021/04/05 07:02:35;;;;;;;1.48;1.30;;;0.90;99.90;;;;;;5046886;28;20616;-72
2021/04/05 07:05:23;;;;;;;1.45;0.98;;;1.00;99.90;;;;;;5065875;28;20247;-71
2021/04/05 07:08:21;;;;;;;1.40;1.02;;;1.10;99.90;;;;;;5065974;28;20188;-71
2021/04/05 07:11:10;;;;;;;0.93;0.85;;;1.20;99.90;;;;;;5059919;28;20917;-71
2021/04/05 07:14:13;;;;;;;0.98;0.80;;;1.20;99.90;;;;;;5061625;28;20281;-72
2021/04/05 07:16:54;;;;;;;1.45;1.20;;;1.10;99.90;;;;;;5062085;28;20188;-72
2021/04/05 07:19:33;;;;;;;1.75;1.02;;;1.30;99.90;;;;;;5046302;28;20261;-73
2021/04/05 07:22:17;;;;;;;3.95;1.20;;;1.40;99.90;;;;;;5064136;28;20200;-73
2021/04/05 07:25:17;;;;;;;3.92;1.60;;;1.20;99.90;;;;;;5048520;28;21090;-72
2021/04/05 07:28:18;;;;;;;1.27;1.17;;;1.30;99.90;;;;;;5012690;28;20999;-72
2021/04/05 07:30:50;;;;;;;3.80;1.17;;;1.30;99.90;;;;;;5007815;28;20288;-72
2021/04/05 07:33:24;;;;;;;1.45;1.00;;;1.40;99.90;;;;;;5052867;28;20550;-72
2021/04/05 07:36:34;;;;;;;2.45;1.08;;;1.30;99.90;;;;;;5064801;28;20207;-73
2021/04/05 07:39:23;;;;;;;1.40;1.00;;;1.40;99.90;;;;;;5063645;28;20687;-73
2021/04/05 07:41:55;;;;;;;2.45;1.23;;;1.70;99.90;;;;;;5070401;28;20311;-73
2021/04/05 07:44:33;;;;;;;2.33;1.00;;;2.00;99.90;;;;;;5060223;28;20204;-74
2021/04/05 07:47:25;;;;;;;1.17;1.00;;;2.40;99.90;;;;;;5061903;28;20208;-73
2021/04/05 07:50:12;;;;;;;1.10;1.00;;;2.50;99.90;;;;;;5062186;28;20193;-73
2021/04/05 07:52:44;;;;;;;2.90;1.08;;;2.70;99.90;;;;;;5063655;28;20548;-72
2021/04/05 07:55:10;;;;;;;4.35;1.52;;;2.90;99.90;;;;;;5062044;28;20201;-73
2021/04/05 07:57:47;;;;;;;1.00;0.90;;;2.60;99.90;;;;;;5044097;28;20232;-74
2021/04/05 08:00:34;;;;;;;1.50;0.98;;;2.10;99.90;;;;;;5060636;28;20192;-74
2021/04/05 08:03:37;;;;;;;1.90;1.15;;;1.60;99.90;;;;;;5065553;28;20208;-73
2021/04/05 08:06:10;;;;;;;2.65;1.00;;;1.60;99.90;;;;;;5070288;28;20327;-73
2021/04/05 08:08:51;;;;;;;2.10;1.10;;;1.40;99.90;;;;;;5046560;28;20219;-72
2021/04/05 08:11:45;;;;;;;2.03;1.23;;;1.30;99.90;;;;;;5044638;28;20280;-73
2021/04/05 08:14:34;;;;;;;1.02;1.00;;;1.70;99.90;;;;;;5063912;28;20208;-72
2021/04/05 08:17:24;;;;;;;1.10;1.00;;;2.20;99.90;;;;;;5062424;28;20200;-73
2021/04/05 08:19:57;;;;;;;0.90;0.90;;;2.30;99.90;;;;;;5059396;28;20736;-73
2021/04/05 08:22:44;;;;;;;2.25;0.90;;;2.70;99.90;;;;;;5064203;28;20614;-74
2021/04/05 08:25:45;;;;;;;2.17;1.00;;;2.70;99.90;;;;;;5060730;28;20199;-73
2021/04/05 08:28:46;;;;;;;1.75;1.08;;;3.00;99.90;;;;;;5068378;28;20192;-73
2021/04/05 08:31:46;;;;;;;1.10;1.00;;;3.10;99.90;;;;;;5059267;28;20585;-73
2021/04/05 08:34:36;;;;;;;3.08;1.55;;;2.70;99.90;;;;;;5044049;28;20193;-73
2021/04/05 08:37:31;;;;;;;1.13;1.02;;;2.60;99.90;;;;;;5060539;28;20714;-72
2021/04/05 08:40:13;;;;;;;1.10;1.00;;;2.50;99.90;;;;;;5059099;28;20279;-73
2021/04/05 08:42:41;;;;;;;0.95;0.90;;;2.20;99.90;;;;;;5067050;28;20227;-73
2021/04/05 08:45:20;;;;;;;1.58;0.93;;;1.80;99.90;;;;;;5043095;28;20250;-73
2021/04/05 08:48:02;;;;;;;3.88;2.03;;;2.00;99.90;;;;;;5058405;28;20207;-73
2021/04/05 08:50:29;;;;;;;1.90;1.50;;;2.50;99.90;;;;;;5064349;28;20200;-72
2021/04/05 08:52:57;;;;;;;1.85;1.35;;;3.20;99.90;;;;;;5066931;28;20215;-73
2021/04/05 08:55:29;;;;;;;1.92;1.33;;;3.30;99.90;;;;;;5063775;28;20211;-72
2021/04/05 08:57:57;;;;;;;5.15;1.15;;;3.30;99.90;;;;;;5042820;28;20212;-73
2021/04/05 09:00:25;;;;;;;1.23;1.00;;;3.30;99.90;;;;;;5064385;28;20246;-73
2021/04/05 09:02:56;;;;;;;1.02;0.80;;;3.10;99.90;;;;;;5063095;28;20290;-72
2021/04/05 09:05:25;;;;;;;1.70;1.13;;;2.90;99.90;;;;;;5041838;28;20227;-73
2021/04/05 09:08:11;;;;;;;0.90;0.90;;;3.20;99.90;;;;;;5061830;28;20205;-72
2021/04/05 09:10:52;;;;;;;1.80;1.40;;;3.80;99.90;;;;;;5064289;28;20187;-73
2021/04/05 09:13:21;;;;;;;4.95;0.90;;;3.80;99.90;;;;;;5058567;28;20196;-73
2021/04/05 09:15:56;;;;;;;1.05;0.95;;;3.90;99.90;;;;;;5049327;28;20206;-73
2021/04/05 09:18:59;;;;;;;1.60;1.00;;;4.00;99.90;;;;;;5071197;28;20563;-74
2021/04/05 09:22:05;;;;;;;1.25;1.15;;;4.10;99.90;;;;;;5049707;28;20703;-73
2021/04/05 09:24:49;;;;;;;5.07;3.00;;;4.10;99.90;;;;;;5064753;28;20550;-73
2021/04/05 09:27:52;;;;;;;2.55;1.30;;;4.30;99.90;;;;;;5062703;28;20236;-72
2021/04/05 09:30:55;;;;;;;2.28;1.10;;;4.10;98.50;;;;;;5059210;28;20338;-73
2021/04/05 09:33:42;;;;;;;3.90;2.20;;;4.30;99.60;;;;;;5059511;28;20196;-74
2021/04/05 09:36:35;;;;;;;3.10;1.08;;;4.50;97.00;;;;;;5068437;28;20224;-73
2021/04/05 09:39:12;;;;;;;2.42;1.10;;;4.60;98.80;;;;;;5060865;28;20201;-74
2021/04/05 09:42:15;;;;;;;1.13;0.88;;;5.20;96.40;;;;;;5053668;28;20808;-73
2021/04/05 09:45:18;;;;;;;2.03;1.27;;;5.50;96.30;;;;;;5061253;28;20188;-72
2021/04/05 09:48:21;;;;;;;1.15;1.00;;;4.70;94.10;;;;;;5041426;28;20212;-73
2021/04/05 09:51:05;;;;;;;3.10;1.10;;;4.30;94.80;;;;;;5056203;28;20200;-73
2021/04/05 09:53:45;;;;;;;3.28;1.10;;;4.50;96.70;;;;;;5065722;28;20205;-73
2021/04/05 09:56:19;;;;;;;0.85;0.80;;;4.60;95.00;;;;;;5065867;28;20309;-73
2021/04/05 09:58:54;;;;;;;3.60;1.30;;;4.10;94.60;;;;;;5058805;28;20238;-73
2021/04/05 10:01:29;;;;;;;2.50;1.20;;;4.00;97.00;;;;;;5066907;28;20210;-73
2021/04/05 10:04:15;;;;;;;1.75;1.30;;;4.20;94.60;;;;;;5046153;28;20208;-73
2021/04/05 10:06:42;;;;;;;1.42;0.88;;;4.30;93.80;;;;;;5064064;28;20211;-71
2021/04/05 10:09:09;;;;;;;1.13;0.90;;;4.30;93.50;;;;;;5038934;28;20189;-74
2021/04/05 10:11:42;;;;;;;0.80;0.80;;;4.40;95.80;;;;;;5058658;28;20223;-73
2021/04/05 10:14:18;;;;;;;1.27;1.00;;;4.60;92.90;;;;;;5065430;28;20689;-72
2021/04/05 10:16:53;;;;;;;0.82;0.70;;;4.50;93.20;;;;;;5045221;28;20215;-73
2021/04/05 10:19:28;;;;;;;2.17;0.90;;;4.80;94.70;;;;;;5063859;28;20282;-72
2021/04/05 10:22:03;;;;;;;1.08;0.80;;;4.80;93.80;;;;;;5062392;28;20234;-73
2021/04/05 10:24:31;;;;;;;1.95;1.13;;;5.20;95.00;;;;;;5065790;28;20224;-73
2021/04/05 10:26:58;;;;;;;2.25;1.10;;;5.80;95.40;;;;;;5061983;28;20579;-72
2021/04/05 10:29:29;;;;;;;1.60;1.00;;;6.30;92.30;;;;;;5045606;28;20228;-72
2021/04/05 10:31:57;;;;;;;1.45;1.00;;;6.30;89.40;;;;;;5062347;28;20667;-72
2021/04/05 10:34:26;;;;;;;1.08;0.88;;;5.80;92.20;;;;;;5066337;28;20207;-74
2021/04/05 10:37:15;;;;;;;2.03;0.90;;;5.90;91.80;;;;;;5040531;28;20295;-73
2021/04/05 10:39:49;;;;;;;1.10;0.93;;;5.80;91.90;;;;;;5057676;28;20197;-73
2021/04/05 10:42:36;;;;;;;1.10;1.00;;;5.30;91.00;;;;;;5055850;28;20680;-73
2021/04/05 10:45:08;;;;;;;2.45;1.00;;;5.30;91.60;;;;;;5045381;28;20200;-73
2021/04/05 10:47:46;;;;;;;1.40;0.90;;;5.80;94.10;;;;;;5059816;28;20201;-72
2021/04/05 10:50:13;;;;;;;0.85;0.70;;;5.50;91.60;;;;;;5054513;28;20193;-75
2021/04/05 10:52:45;;;;;;;1.45;1.00;;;5.80;91.70;;;;;;5059231;28;20283;-72
2021/04/05 10:55:18;;;;;;;0.80;0.80;;;5.70;91.80;;;;;;5059043;28;20746;-73
2021/04/05 10:57:46;;;;;;;4.05;1.00;;;5.60;92.60;;;;;;5059296;28;20209;-73
2021/04/05 11:00:23;;;;;;;1.52;1.10;;;5.70;92.20;;;;;;5060555;28;20685;-72
2021/04/05 11:02:54;;;;;;;1.27;0.90;;;6.10;92.00;;;;;;5061031;28;20283;-73
2021/04/05 11:05:22;;;;;;;4.03;1.00;;;6.20;91.10;;;;;;5057468;28;20239;-72
2021/04/05 11:07:56;;;;;;;3.00;0.90;;;5.80;92.20;;;;;;5063436;28;20196;-72
2021/04/05 11:10:22;;;;;;;0.80;0.80;;;5.20;91.20;;;;;;5057844;28;20201;-72
2021/04/05 11:12:57;;;;;;;1.83;1.10;;;4.90;92.50;;;;;;5058737;28;20282;-73
2021/04/05 11:15:26;;;;;;;1.52;1.10;;;4.50;92.80;;;;;;5060005;28;20223;-73
2021/04/05 11:17:54;;;;;;;0.90;0.90;;;4.90;94.50;;;;;;5060958;28;20217;-72
2021/04/05 11:20:25;;;;;;;0.95;0.80;;;5.20;93.70;;;;;;5057188;28;20201;-73
2021/04/05 11:23:08;;;;;;;4.57;0.90;;;5.40;93.20;;;;;;5046224;28;20244;-72
2021/04/05 11:25:36;;;;;;;1.95;1.00;;;5.40;92.60;;;;;;5051449;28;20284;-73
2021/04/05 11:28:18;;;;;;;1.00;0.90;;;5.20;91.20;;;;;;5060387;28;20201;-72
2021/04/05 11:30:48;;;;;;;2.30;1.05;;;5.00;91.50;;;;;;5054141;28;20200;-73
2021/04/05 11:33:21;;;;;;;0.80;0.80;;;4.90;92.30;;;;;;5055567;28;20201;-73
2021/04/05 11:35:50;;;;;;;0.80;0.80;;;4.60;92.20;;;;;;5059570;28;20657;-73
2021/04/05 11:38:19;;;;;;;0.93;0.80;;;4.40;94.40;;;;;;5053891;28;20296;-73
2021/04/05 11:40:48;;;;;;;1.00;0.90;;;4.40;94.00;;;;;;5041141;28;20200;-72
2021/04/05 11:43:20;;;;;;;1.05;0.90;;;4.30;94.80;;;;;;5061385;28;20578;-74
2021/04/05 11:45:54;;;;;;;1.13;0.90;;;4.30;94.30;;;;;;5061307;28;20201;-74
2021/04/05 11:48:22;;;;;;;0.75;0.70;;;4.40;94.50;;;;;;5059630;28;20197;-73
2021/04/05 11:50:51;;;;;;;2.00;0.85;;;4.50;95.50;;;;;;5061525;28;20200;-73
2021/04/05 11:53:41;;;;;;;1.38;0.88;;;4.50;94.90;;;;;;5058031;28;20841;-74
2021/04/05 11:56:16;;;;;;;4.57;1.00;;;4.20;94.00;;;;;;5060412;28;20283;-74
2021/04/05 11:59:04;;;;;;;3.22;1.10;;;4.30;94.20;;;;;;5060491;28;20199;-73
2021/04/05 12:01:40;;;;;;;2.30;0.93;;;4.40;93.90;;;;;;5060647;28;20200;-74
2021/04/05 12:04:26;;;;;;;1.35;0.80;;;4.20;94.70;;;;;;5061445;28;20224;-73
2021/04/05 12:07:14;;;;;;;2.13;1.00;;;4.20;94.80;;;;;;5040061;28;20319;-74
2021/04/05 12:10:06;;;;;;;2.90;0.90;;;4.10;96.60;;;;;;5056976;28;20214;-74
2021/04/05 12:12:37;;;;;;;2.95;1.20;;;3.90;95.70;;;;;;5039759;28;20623;-74
2021/04/05 12:15:07;;;;;;;3.25;1.00;;;3.70;97.10;;;;;;5056392;28;20201;-74
2021/04/05 12:17:33;;;;;;;4.82;1.55;;;3.50;99.40;;;;;;5056424;28;20713;-74
2021/04/05 12:20:03;;;;;;;2.35;1.15;;;3.30;99.90;;;;;;5044938;28;20235;-74
2021/04/05 12:22:32;;;;;;;4.03;1.15;;;3.20;99.90;;;;;;5061148;28;20200;-74
2021/04/05 12:25:01;;;;;;;3.92;1.25;;;3.20;99.90;;;;;;5065442;28;20228;-74
2021/04/05 12:27:37;;;;;;;1.67;1.08;;;3.20;99.90;;;;;;5044438;28;20207;-74
2021/04/05 12:30:09;;;;;;;3.72;1.02;;;3.30;99.90;;;;;;5057214;28;20236;-74
2021/04/05 12:32:38;;;;;;;3.42;1.08;;;3.50;99.90;;;;;;5066973;28;20207;-73
2021/04/05 12:35:08;;;;;;;1.95;1.13;;;3.90;99.90;;;;;;5061750;28;20685;-73
2021/04/05 12:37:34;;;;;;;1.85;0.93;;;4.30;99.90;;;;;;5062223;28;20211;-73
2021/04/05 12:40:02;;;;;;;4.80;1.10;;;4.50;99.90;;;;;;5064744;28;20201;-74
2021/04/05 12:42:38;;;;;;;2.75;1.17;;;4.80;99.90;;;;;;5061629;28;20219;-73
2021/04/05 12:45:11;;;;;;;2.90;1.02;;;5.20;99.90;;;;;;5062038;28;20189;-74
2021/04/05 12:47:40;;;;;;;3.88;1.00;;;5.40;99.90;;;;;;5061818;28;20283;-73
2021/04/05 12:50:09;;;;;;;2.25;1.10;;;5.70;99.90;;;;;;5065580;28;20661;-73
2021/04/05 12:52:39;;;;;;;1.40;1.00;;;5.60;99.90;;;;;;5062673;28;20200;-75
2021/04/05 12:55:41;;;;;;;1.45;0.90;;;5.70;98.50;;;;;;5062765;28;20222;-74
2021/04/05 12:58:07;;;;;;;2.72;1.00;;;6.20;99.90;;;;;;5051424;28;20211;-74
2021/04/05 13:00:42;;;;;;;2.33;1.20;;;6.70;96.40;;;;;;5060601;28;20215;-73
2021/04/05 13:03:18;;;;;;;2.50;1.02;;;6.30;98.30;;;;;;5061723;28;20246;-73
2021/04/05 13:05:59;;;;;;;1.63;1.00;;;6.60;95.60;;;;;;5055835;28;20628;-73
2021/04/05 13:08:37;;;;;;;4.05;1.05;;;6.70;95.20;;;;;;5059594;28;20197;-73
2021/04/05 13:11:15;;;;;;;5.25;1.10;;;7.10;95.30;;;;;;5058724;28;20208;-74
2021/04/05 13:14:04;;;;;;;2.85;1.00;;;7.60;95.20;;;;;;5065034;28;20644;-74
2021/04/05 13:16:37;;;;;;;4.70;1.10;;;7.40;91.20;;;;;;5061539;28;20539;-74
2021/04/05 13:19:11;;;;;;;2.22;1.00;;;6.90;93.80;;;;;;5057412;28;20565;-74
2021/04/05 13:21:40;;;;;;;3.15;1.42;;;6.80;94.20;;;;;;5062935;28;20437;-74
2021/04/05 13:24:11;;;;;;;5.05;1.10;;;6.80;93.10;;;;;;5056417;28;20201;-74
2021/04/05 13:26:59;;;;;;;2.38;1.13;;;6.50;92.90;;;;;;5065598;28;20519;-75
2021/04/05 13:29:27;;;;;;;1.27;0.95;;;6.60;94.60;;;;;;5058526;28;20201;-74
2021/04/05 13:31:57;;;;;;;3.15;1.02;;;6.40;92.80;;;;;;5064773;28;20192;-74
2021/04/05 13:34:30;;;;;;;3.97;1.38;;;6.30;92.50;;;;;;5062255;28;20224;-74
2021/04/05 13:37:03;;;;;;;2.10;0.98;;;6.00;92.60;;;;;;5059694;28;20214;-74